Flight Track Log - Related Links

Times and Time Zones

All times are in EDT time to prevent confusion due to time zone crossing. See the N210CH flight status page for this flight to view local times or setup timezone preferences in your user account.

Time Position Orientation Groundspeed Altitude Reporting Facility
EDT Latitude Longitude Course Direction KTS MPH feet Rate Location/Type
Fri 02:58:00 PM 36.4744 -82.9283 130° Southeast  Level FlightAware Approximate
Fri 02:59:00 PM 36.4446 -82.8804 127° Southeast  Level FlightAware Approximate
Fri 03:00:00 PM 36.4153 -82.8322 127° Southeast  Level FlightAware Approximate
Fri 03:01:00 PM 36.3860 -82.7840 127° Southeast  Level FlightAware Approximate
Fri 03:02:00 PM 36.3566 -82.7359 127° Southeast  Level FlightAware Approximate
Fri 03:03:00 PM 36.3273 -82.6878 127° Southeast  Level FlightAware Approximate
Fri 03:04:00 PM 36.2979 -82.6397 127° Southeast  Level FlightAware Approximate
Fri 03:04:17 PM 36.1558 -82.4136 127° Southeast 190 219 9,000  Level Atlanta Center
Fri 03:05:00 PM 36.2684 -82.5917 127° Southeast  Level FlightAware Approximate
Fri 03:05:17 PM 36.1303 -82.3678 125° Southeast 190 219 9,000  Level Atlanta Center
Fri 03:06:00 PM 36.2390 -82.5437 127° Southeast  Level FlightAware Approximate
Fri 03:06:17 PM 36.1006 -82.3169 126° Southeast 190 219 9,000  Level Atlanta Center
Fri 03:07:00 PM 36.2095 -82.4957 127° Southeast  Level FlightAware Approximate
Fri 03:07:17 PM 36.0683 -82.2661 128° Southeast 190 219 9,000  Level Atlanta Center
Fri 03:08:00 PM 36.1800 -82.4478 127° Southeast  Level FlightAware Approximate
Fri 03:08:17 PM 36.0383 -82.2156 126° Southeast 190 219 9,000  Level Atlanta Center
Fri 03:09:00 PM 36.1506 -82.3999 127° Southeast  Level FlightAware Approximate
Fri 03:09:17 PM 36.0064 -82.1625 127° Southeast 185 213 9,000  Level Atlanta Center
Fri 03:10:17 PM 35.9742 -82.1092 127° Southeast 191 220 9,000  Level Atlanta Center
Fri 03:11:17 PM 35.9400 -82.0589 130° Southeast 191 220 9,000  Level Atlanta Center
Fri 03:12:17 PM 35.9078 -82.0031 125° Southeast 201 231 9,000  Level Atlanta Center
Fri 03:13:17 PM 35.8781 -81.9578 129° Southeast 201 231 9,000  Level Atlanta Center
Fri 03:14:17 PM 35.8414 -81.8997 128° Southeast 201 231 9,000  Level Atlanta Center
Fri 03:15:17 PM 35.8072 -81.8469 129° Southeast 201 231 9,000  Level Atlanta Center
Fri 03:16:17 PM 35.7728 -81.7914 127° Southeast 201 231 9,000  Level Atlanta Center
Fri 03:17:17 PM 35.7342 -81.7311 128° Southeast 204 235 9,000  Level Atlanta Center
Fri 03:18:12 PM 35.7039 -81.6833 128° Southeast 205 236 9,000  Level Atlanta Center
Fri 03:19:17 PM 35.6653 -81.6258 130° Southeast 201 231 9,000  Level Atlanta Center
Fri 03:20:17 PM 35.6267 -81.5681 129° Southeast 201 231 9,000 -167 Level Atlanta Center
Fri 03:22:17 PM 35.5453 -81.4686 135° Southeast 201 231 8,500 -333 Descending Atlanta Center
Fri 03:23:17 PM 35.4925 -81.4369 154° Southeast 212 244 8,000 -500 Descending Atlanta Center
Fri 03:24:17 PM 35.4417 -81.3978 148° Southeast 212 244 7,500 -500 Descending Atlanta Center
Fri 03:25:17 PM 35.3950 -81.3636 149° Southeast 201 231 7,000 -450 Descending Atlanta Center
Fri 03:26:17 PM 35.3483 -81.3347 153° Southeast 201 231 6,600 -508 Descending Atlanta Center
Fri 03:27:27 PM 35.2975 -81.2956 148° Southeast 182 209 5,900 -550 Descending Atlanta Center
Fri 03:28:28 PM 35.2550 -81.2614 147° Southeast 185 213 5,400 -724 Descending Atlanta Center
Fri 03:29:23 PM 35.2125 -81.2297 149° Southeast 183 211 4,500 -730 Descending Atlanta Center
Fri 03:30:23 PM 35.1681 -81.2008 152° Southeast 184 212 4,000 -496 Descending Atlanta Center
Fri 03:31:24 PM 35.1278 -81.1692 147° Southeast 176 203 3,500 -443 Descending Atlanta Center
Fri 03:32:25 PM 35.0833 -81.1453 156° South 176 203 3,100 -207 Descending Atlanta Center
Fri 03:33:20 PM 35.0450 -81.1161 148° Southeast 173 199 3,100 -259 Level Atlanta Center
Fri 03:34:21 PM 35.0231 -81.0661 118° Southeast 174 200 2,600 -393 Descending Atlanta Center
Fri 03:35:22 PM 35.0258 -81.0078 87° East 175 201 2,300 -149 Descending Atlanta Center
Fri 03:36:22 PM 35.0242 -80.9519 92° East 165 190 2,300  Level Atlanta Center
Fri 03:37:29 PM 35.0225 -80.8861 92° East 168 193 2,300  Level Atlanta Center
Fri 03:38:30 PM 35.0214 -80.8331 91° East 163 188 2,300  Level Atlanta Center
Fri 03:39:37 PM 35.0156 -80.7722 97° East 161 185 2,300  Level Atlanta Center

Login

Don't have an account? Register now (free) for customized features, flight alerts, and more!